sensor_id;sensor_type;location;lat;lon;timestamp;pressure;altitude;pressure_sealevel;temperature;humidity
21203;BME280;10759;51.982;9.232;2023-01-08T00:02:03;99221.03;;;7.79;100.00
21203;BME280;10759;51.982;9.232;2023-01-08T00:04:32;99201.88;;;7.71;100.00
21203;BME280;10759;51.982;9.232;2023-01-08T00:07:00;99360.78;;;8.57;100.00
21203;BME280;10759;51.982;9.232;2023-01-08T00:09:28;99342.78;;;8.42;100.00
21203;BME280;10759;51.982;9.232;2023-01-08T00:11:56;99379.94;;;8.67;100.00
21203;BME280;10759;51.982;9.232;2023-01-08T00:14:24;99373.84;;;8.63;100.00
21203;BME280;10759;51.982;9.232;2023-01-08T00:16:52;99183.34;;;7.47;100.00
21203;BME280;10759;51.982;9.232;2023-01-08T00:19:20;99384.06;;;8.74;100.00
21203;BME280;10759;51.982;9.232;2023-01-08T00:21:49;99351.63;;;8.81;100.00
21203;BME280;10759;51.982;9.232;2023-01-08T00:24:17;99184.50;;;7.81;100.00
21203;BME280;10759;51.982;9.232;2023-01-08T00:26:46;99286.97;;;8.35;100.00
21203;BME280;10759;51.982;9.232;2023-01-08T00:29:14;99316.88;;;8.44;100.00
21203;BME280;10759;51.982;9.232;2023-01-08T00:31:42;99291.72;;;8.29;100.00
21203;BME280;10759;51.982;9.232;2023-01-08T00:34:10;99368.50;;;8.63;100.00
21203;BME280;10759;51.982;9.232;2023-01-08T00:36:38;99382.66;;;8.65;100.00
21203;BME280;10759;51.982;9.232;2023-01-08T00:39:08;99386.28;;;8.64;100.00
21203;BME280;10759;51.982;9.232;2023-01-08T00:41:36;99377.09;;;8.70;100.00
21203;BME280;10759;51.982;9.232;2023-01-08T00:44:04;99381.03;;;8.81;100.00
21203;BME280;10759;51.982;9.232;2023-01-08T00:46:32;99348.59;;;8.70;100.00
21203;BME280;10759;51.982;9.232;2023-01-08T00:48:59;99268.06;;;8.21;100.00
21203;BME280;10759;51.982;9.232;2023-01-08T00:51:28;99349.88;;;8.80;100.00
21203;BME280;10759;51.982;9.232;2023-01-08T00:53:56;99312.72;;;8.57;100.00
21203;BME280;10759;51.982;9.232;2023-01-08T00:56:25;99330.13;;;8.85;100.00
21203;BME280;10759;51.982;9.232;2023-01-08T00:58:54;99329.25;;;8.84;100.00
21203;BME280;10759;51.982;9.232;2023-01-08T01:01:22;99310.91;;;8.76;100.00
21203;BME280;10759;51.982;9.232;2023-01-08T01:03:50;99337.31;;;8.82;100.00
21203;BME280;10759;51.982;9.232;2023-01-08T01:06:18;99337.47;;;8.79;100.00
21203;BME280;10759;51.982;9.232;2023-01-08T01:08:46;99331.25;;;8.98;100.00
21203;BME280;10759;51.982;9.232;2023-01-08T01:11:17;99321.16;;;8.86;100.00
21203;BME280;10759;51.982;9.232;2023-01-08T01:13:47;99246.75;;;8.40;100.00
21203;BME280;10759;51.982;9.232;2023-01-08T01:16:16;99323.38;;;8.95;100.00
21203;BME280;10759;51.982;9.232;2023-01-08T01:18:44;99150.28;;;7.91;100.00
21203;BME280;10759;51.982;9.232;2023-01-08T01:21:14;99329.59;;;8.95;100.00
21203;BME280;10759;51.982;9.232;2023-01-08T01:23:44;99317.56;;;8.87;100.00
21203;BME280;10759;51.982;9.232;2023-01-08T01:26:16;99220.09;;;8.38;100.00
21203;BME280;10759;51.982;9.232;2023-01-08T01:28:48;99324.34;;;8.94;100.00
21203;BME280;10759;51.982;9.232;2023-01-08T01:31:18;99259.09;;;8.62;100.00
21203;BME280;10759;51.982;9.232;2023-01-08T01:33:47;99317.41;;;8.90;100.00
21203;BME280;10759;51.982;9.232;2023-01-08T01:36:16;99251.59;;;8.51;100.00
21203;BME280;10759;51.982;9.232;2023-01-08T01:38:45;99325.19;;;8.94;100.00
21203;BME280;10759;51.982;9.232;2023-01-08T01:41:18;99320.50;;;8.99;100.00
21203;BME280;10759;51.982;9.232;2023-01-08T01:43:52;99129.94;;;7.88;100.00
21203;BME280;10759;51.982;9.232;2023-01-08T01:46:25;99311.63;;;8.99;100.00
21203;BME280;10759;51.982;9.232;2023-01-08T01:48:57;99306.56;;;8.93;100.00
21203;BME280;10759;51.982;9.232;2023-01-08T01:51:30;99312.31;;;9.02;100.00
21203;BME280;10759;51.982;9.232;2023-01-08T01:54:00;99311.19;;;9.08;100.00
21203;BME280;10759;51.982;9.232;2023-01-08T01:56:29;99308.00;;;9.00;100.00
21203;BME280;10759;51.982;9.232;2023-01-08T01:59:00;99283.75;;;8.86;100.00
21203;BME280;10759;51.982;9.232;2023-01-08T02:01:29;99317.28;;;9.10;100.00
21203;BME280;10759;51.982;9.232;2023-01-08T02:03:57;99262.84;;;8.76;100.00
21203;BME280;10759;51.982;9.232;2023-01-08T02:06:34;99318.41;;;9.06;100.00
21203;BME280;10759;51.982;9.232;2023-01-08T02:09:08;99326.91;;;9.14;100.00
21203;BME280;10759;51.982;9.232;2023-01-08T02:11:45;99272.72;;;8.74;100.00
21203;BME280;10759;51.982;9.232;2023-01-08T02:14:40;99316.06;;;9.17;100.00
21203;BME280;10759;51.982;9.232;2023-01-08T02:17:15;99309.44;;;9.07;100.00
21203;BME280;10759;51.982;9.232;2023-01-08T02:19:48;99316.00;;;9.00;100.00
21203;BME280;10759;51.982;9.232;2023-01-08T02:22:25;99316.81;;;9.02;100.00
21203;BME280;10759;51.982;9.232;2023-01-08T02:24:58;99319.53;;;9.00;100.00
21203;BME280;10759;51.982;9.232;2023-01-08T02:27:30;99292.13;;;8.97;100.00
21203;BME280;10759;51.982;9.232;2023-01-08T02:30:03;99287.06;;;8.91;100.00
21203;BME280;10759;51.982;9.232;2023-01-08T02:32:35;99312.91;;;9.09;100.00
21203;BME280;10759;51.982;9.232;2023-01-08T02:35:05;99318.88;;;9.14;100.00
21203;BME280;10759;51.982;9.232;2023-01-08T02:37:34;99131.53;;;7.92;100.00
21203;BME280;10759;51.982;9.232;2023-01-08T02:40:07;99312.03;;;9.09;100.00
21203;BME280;10759;51.982;9.232;2023-01-08T02:42:45;99309.44;;;9.07;100.00
21203;BME280;10759;51.982;9.232;2023-01-08T02:45:30;99220.19;;;8.56;100.00
21203;BME280;10759;51.982;9.232;2023-01-08T02:48:08;99300.06;;;8.98;100.00
21203;BME280;10759;51.982;9.232;2023-01-08T02:50:39;99317.22;;;9.12;100.00
21203;BME280;10759;51.982;9.232;2023-01-08T02:53:12;99240.84;;;8.71;100.00
21203;BME280;10759;51.982;9.232;2023-01-08T02:55:44;99308.50;;;9.08;100.00
21203;BME280;10759;51.982;9.232;2023-01-08T02:58:15;99304.09;;;9.07;100.00
21203;BME280;10759;51.982;9.232;2023-01-08T03:00:44;99315.13;;;9.18;100.00
21203;BME280;10759;51.982;9.232;2023-01-08T03:03:15;99226.59;;;8.71;100.00
21203;BME280;10759;51.982;9.232;2023-01-08T03:05:47;99285.53;;;9.04;100.00
21203;BME280;10759;51.982;9.232;2023-01-08T03:08:16;99267.59;;;8.89;100.00
21203;BME280;10759;51.982;9.232;2023-01-08T03:10:48;99106.16;;;7.84;100.00
21203;BME280;10759;51.982;9.232;2023-01-08T03:13:23;99231.88;;;8.72;100.00
21203;BME280;10759;51.982;9.232;2023-01-08T03:15:56;99297.16;;;9.03;100.00
21203;BME280;10759;51.982;9.232;2023-01-08T03:18:30;99295.59;;;8.99;100.00
21203;BME280;10759;51.982;9.232;2023-01-08T03:21:00;99262.53;;;8.82;100.00
21203;BME280;10759;51.982;9.232;2023-01-08T03:23:30;99225.41;;;8.59;100.00
21203;BME280;10759;51.982;9.232;2023-01-08T03:26:00;99295.75;;;8.96;100.00
21203;BME280;10759;51.982;9.232;2023-01-08T03:28:33;99272.47;;;8.98;100.00
21203;BME280;10759;51.982;9.232;2023-01-08T03:31:02;99283.16;;;8.98;100.00
21203;BME280;10759;51.982;9.232;2023-01-08T03:33:32;99288.59;;;8.96;100.00
21203;BME280;10759;51.982;9.232;2023-01-08T03:36:02;99170.69;;;8.30;100.00
21203;BME280;10759;51.982;9.232;2023-01-08T03:38:33;99248.69;;;8.74;100.00
21203;BME280;10759;51.982;9.232;2023-01-08T03:41:05;99264.13;;;8.87;100.00
21203;BME280;10759;51.982;9.232;2023-01-08T03:43:37;99199.19;;;8.48;100.00
21203;BME280;10759;51.982;9.232;2023-01-08T03:46:08;99234.53;;;8.72;100.00
21203;BME280;10759;51.982;9.232;2023-01-08T03:48:40;99262.56;;;9.00;100.00
21203;BME280;10759;51.982;9.232;2023-01-08T03:51:08;99202.22;;;8.59;100.00
21203;BME280;10759;51.982;9.232;2023-01-08T03:53:36;99160.47;;;8.40;100.00
21203;BME280;10759;51.982;9.232;2023-01-08T03:56:05;99245.25;;;8.90;100.00
21203;BME280;10759;51.982;9.232;2023-01-08T03:58:33;99256.91;;;8.89;100.00
21203;BME280;10759;51.982;9.232;2023-01-08T04:01:02;99256.44;;;8.98;100.00
21203;BME280;10759;51.982;9.232;2023-01-08T04:03:30;99241.81;;;8.88;100.00
21203;BME280;10759;51.982;9.232;2023-01-08T04:05:58;99248.34;;;8.99;100.00
21203;BME280;10759;51.982;9.232;2023-01-08T04:08:26;99236.06;;;8.95;100.00
21203;BME280;10759;51.982;9.232;2023-01-08T04:10:54;99160.66;;;8.54;100.00
21203;BME280;10759;51.982;9.232;2023-01-08T04:13:22;99194.53;;;8.71;100.00
21203;BME280;10759;51.982;9.232;2023-01-08T04:15:50;99096.84;;;8.11;100.00
21203;BME280;10759;51.982;9.232;2023-01-08T04:18:20;99215.41;;;8.81;100.00
21203;BME280;10759;51.982;9.232;2023-01-08T04:20:48;99223.97;;;8.88;100.00
21203;BME280;10759;51.982;9.232;2023-01-08T04:23:15;99200.78;;;8.71;100.00
21203;BME280;10759;51.982;9.232;2023-01-08T04:25:43;99189.94;;;8.74;100.00
21203;BME280;10759;51.982;9.232;2023-01-08T04:28:11;99158.66;;;8.59;100.00
21203;BME280;10759;51.982;9.232;2023-01-08T04:30:39;99209.44;;;8.94;100.00
21203;BME280;10759;51.982;9.232;2023-01-08T04:33:07;99212.25;;;8.91;100.00
21203;BME280;10759;51.982;9.232;2023-01-08T04:35:36;99202.16;;;8.78;100.00
21203;BME280;10759;51.982;9.232;2023-01-08T04:38:04;99213.44;;;8.85;100.00
21203;BME280;10759;51.982;9.232;2023-01-08T04:40:33;99122.28;;;8.37;100.00
21203;BME280;10759;51.982;9.232;2023-01-08T04:43:01;99206.22;;;8.87;100.00
21203;BME280;10759;51.982;9.232;2023-01-08T04:45:29;99207.94;;;8.88;100.00
21203;BME280;10759;51.982;9.232;2023-01-08T04:47:57;99206.81;;;8.75;100.00
21203;BME280;10759;51.982;9.232;2023-01-08T04:50:26;99211.13;;;8.77;100.00
21203;BME280;10759;51.982;9.232;2023-01-08T04:52:57;99204.38;;;8.70;100.00
21203;BME280;10759;51.982;9.232;2023-01-08T04:55:25;99186.09;;;8.61;100.00
21203;BME280;10759;51.982;9.232;2023-01-08T04:57:53;99164.03;;;8.57;100.00
21203;BME280;10759;51.982;9.232;2023-01-08T05:00:21;99076.03;;;8.01;100.00
21203;BME280;10759;51.982;9.232;2023-01-08T05:02:49;99149.56;;;8.44;100.00
21203;BME280;10759;51.982;9.232;2023-01-08T05:05:17;99169.38;;;8.57;100.00
21203;BME280;10759;51.982;9.232;2023-01-08T05:07:45;99199.88;;;8.71;100.00
21203;BME280;10759;51.982;9.232;2023-01-08T05:10:15;99194.31;;;8.75;100.00
21203;BME280;10759;51.982;9.232;2023-01-08T05:12:42;99196.41;;;8.69;100.00
21203;BME280;10759;51.982;9.232;2023-01-08T05:15:10;99186.84;;;8.65;100.00
21203;BME280;10759;51.982;9.232;2023-01-08T05:17:38;99184.34;;;8.62;100.00
21203;BME280;10759;51.982;9.232;2023-01-08T05:20:07;99195.44;;;8.71;100.00
21203;BME280;10759;51.982;9.232;2023-01-08T05:22:36;99191.81;;;8.72;100.00
21203;BME280;10759;51.982;9.232;2023-01-08T05:25:04;99016.00;;;7.73;100.00
21203;BME280;10759;51.982;9.232;2023-01-08T05:27:34;99021.47;;;7.70;100.00
21203;BME280;10759;51.982;9.232;2023-01-08T05:30:02;99173.50;;;8.65;100.00
21203;BME280;10759;51.982;9.232;2023-01-08T05:32:30;99186.53;;;8.71;100.00
21203;BME280;10759;51.982;9.232;2023-01-08T05:34:58;99153.59;;;8.53;100.00
21203;BME280;10759;51.982;9.232;2023-01-08T05:37:26;99153.59;;;8.53;100.00
21203;BME280;10759;51.982;9.232;2023-01-08T05:39:54;99174.59;;;8.78;100.00
21203;BME280;10759;51.982;9.232;2023-01-08T05:42:21;98989.69;;;7.65;100.00
21203;BME280;10759;51.982;9.232;2023-01-08T05:44:51;99177.97;;;8.64;100.00
21203;BME280;10759;51.982;9.232;2023-01-08T05:47:18;99174.19;;;8.68;100.00
21203;BME280;10759;51.982;9.232;2023-01-08T05:49:46;99004.28;;;7.58;100.00
21203;BME280;10759;51.982;9.232;2023-01-08T05:52:14;99141.19;;;8.52;100.00
21203;BME280;10759;51.982;9.232;2023-01-08T05:54:42;99176.81;;;8.70;100.00
21203;BME280;10759;51.982;9.232;2023-01-08T05:57:10;99182.13;;;8.70;100.00
21203;BME280;10759;51.982;9.232;2023-01-08T05:59:38;99166.78;;;8.56;100.00
21203;BME280;10759;51.982;9.232;2023-01-08T06:02:08;99168.84;;;8.68;100.00
21203;BME280;10759;51.982;9.232;2023-01-08T06:04:36;99176.38;;;8.60;100.00
21203;BME280;10759;51.982;9.232;2023-01-08T06:07:04;99129.78;;;8.29;100.00
21203;BME280;10759;51.982;9.232;2023-01-08T06:09:32;99164.44;;;8.50;100.00
21203;BME280;10759;51.982;9.232;2023-01-08T06:12:00;99096.94;;;8.10;100.00
21203;BME280;10759;51.982;9.232;2023-01-08T06:14:27;99171.41;;;8.52;100.00
21203;BME280;10759;51.982;9.232;2023-01-08T06:16:55;99091.59;;;8.10;100.00
21203;BME280;10759;51.982;9.232;2023-01-08T06:19:25;99164.28;;;8.53;100.00
21203;BME280;10759;51.982;9.232;2023-01-08T06:21:53;99167.88;;;8.52;100.00
21203;BME280;10759;51.982;9.232;2023-01-08T06:24:21;99172.91;;;8.58;100.00
21203;BME280;10759;51.982;9.232;2023-01-08T06:26:49;99174.94;;;8.53;100.00
21203;BME280;10759;51.982;9.232;2023-01-08T06:29:17;99172.06;;;8.57;100.00
21203;BME280;10759;51.982;9.232;2023-01-08T06:31:45;99135.53;;;8.39;100.00
21203;BME280;10759;51.982;9.232;2023-01-08T06:34:14;99164.34;;;8.51;100.00
21203;BME280;10759;51.982;9.232;2023-01-08T06:36:43;99176.38;;;8.60;100.00
21203;BME280;10759;51.982;9.232;2023-01-08T06:39:11;99091.66;;;8.08;100.00
21203;BME280;10759;51.982;9.232;2023-01-08T06:41:41;99183.75;;;8.55;100.00
21203;BME280;10759;51.982;9.232;2023-01-08T06:44:09;99096.50;;;8.00;100.00
21203;BME280;10759;51.982;9.232;2023-01-08T06:46:37;99183.19;;;8.48;100.00
21203;BME280;10759;51.982;9.232;2023-01-08T06:49:06;99182.00;;;8.54;100.00
21203;BME280;10759;51.982;9.232;2023-01-08T06:51:35;99146.31;;;8.37;100.00
21203;BME280;10759;51.982;9.232;2023-01-08T06:54:04;99179.06;;;8.60;100.00
21203;BME280;10759;51.982;9.232;2023-01-08T06:56:32;99116.38;;;8.12;100.00
21203;BME280;10759;51.982;9.232;2023-01-08T06:59:14;99170.56;;;8.52;100.00
21203;BME280;10759;51.982;9.232;2023-01-08T07:01:42;99017.72;;;7.55;100.00
21203;BME280;10759;51.982;9.232;2023-01-08T07:04:10;99178.84;;;8.46;100.00
21203;BME280;10759;51.982;9.232;2023-01-08T07:06:38;99181.88;;;8.57;100.00
21203;BME280;10759;51.982;9.232;2023-01-08T07:09:08;99184.66;;;8.54;100.00
21203;BME280;10759;51.982;9.232;2023-01-08T07:11:38;99147.53;;;8.30;100.00
21203;BME280;10759;51.982;9.232;2023-01-08T07:14:06;99151.69;;;8.36;100.00
21203;BME280;10759;51.982;9.232;2023-01-08T07:16:35;99179.72;;;8.46;100.00
21203;BME280;10759;51.982;9.232;2023-01-08T07:19:03;99173.66;;;8.43;100.00
21203;BME280;10759;51.982;9.232;2023-01-08T07:21:31;99097.38;;;8.01;100.00
21203;BME280;10759;51.982;9.232;2023-01-08T07:23:59;99172.50;;;8.48;100.00
21203;BME280;10759;51.982;9.232;2023-01-08T07:26:28;99023.38;;;7.68;100.00
21203;BME280;10759;51.982;9.232;2023-01-08T07:28:56;99165.66;;;8.43;100.00
21203;BME280;10759;51.982;9.232;2023-01-08T07:31:24;99184.78;;;8.52;100.00
21203;BME280;10759;51.982;9.232;2023-01-08T07:33:52;99176.13;;;8.47;100.00
21203;BME280;10759;51.982;9.232;2023-01-08T07:36:20;99141.78;;;8.21;100.00
21203;BME280;10759;51.982;9.232;2023-01-08T07:38:48;99187.66;;;8.48;100.00
21203;BME280;10759;51.982;9.232;2023-01-08T07:41:17;99177.84;;;8.48;100.00
21203;BME280;10759;51.982;9.232;2023-01-08T07:43:47;99187.66;;;8.48;100.00
21203;BME280;10759;51.982;9.232;2023-01-08T07:46:15;99182.47;;;8.45;100.00
21203;BME280;10759;51.982;9.232;2023-01-08T07:48:43;99168.31;;;8.43;100.00
21203;BME280;10759;51.982;9.232;2023-01-08T07:51:11;99068.88;;;7.82;100.00
21203;BME280;10759;51.982;9.232;2023-01-08T07:53:39;99152.50;;;8.38;100.00
21203;BME280;10759;51.982;9.232;2023-01-08T07:56:08;99173.06;;;8.55;100.00
21203;BME280;10759;51.982;9.232;2023-01-08T07:58:37;99175.91;;;8.52;100.00
21203;BME280;10759;51.982;9.232;2023-01-08T08:01:09;99179.34;;;8.54;100.00
21203;BME280;10759;51.982;9.232;2023-01-08T08:03:38;99171.25;;;8.36;100.00
21203;BME280;10759;51.982;9.232;2023-01-08T08:06:06;99084.31;;;7.94;100.00
21203;BME280;10759;51.982;9.232;2023-01-08T08:08:34;99171.56;;;8.49;100.00
21203;BME280;10759;51.982;9.232;2023-01-08T08:11:02;99168.28;;;8.44;100.00
21203;BME280;10759;51.982;9.232;2023-01-08T08:13:31;99154.19;;;8.41;100.00
21203;BME280;10759;51.982;9.232;2023-01-08T08:16:02;99170.69;;;8.49;100.00
21203;BME280;10759;51.982;9.232;2023-01-08T08:18:32;99155.91;;;8.42;100.00
21203;BME280;10759;51.982;9.232;2023-01-08T08:21:00;99167.09;;;8.50;100.00
21203;BME280;10759;51.982;9.232;2023-01-08T08:23:27;99122.28;;;8.37;100.00
21203;BME280;10759;51.982;9.232;2023-01-08T08:25:56;99163.09;;;8.58;100.00
21203;BME280;10759;51.982;9.232;2023-01-08T08:28:24;99013.84;;;7.81;100.00
21203;BME280;10759;51.982;9.232;2023-01-08T08:30:52;99031.75;;;7.96;100.00
21203;BME280;10759;51.982;9.232;2023-01-08T08:33:20;99073.66;;;8.31;100.00
21203;BME280;10759;51.982;9.232;2023-01-08T08:35:50;99158.03;;;8.71;100.00
21203;BME280;10759;51.982;9.232;2023-01-08T08:38:18;99157.72;;;8.77;100.00
21203;BME280;10759;51.982;9.232;2023-01-08T08:40:49;99144.44;;;8.76;100.00
21203;BME280;10759;51.982;9.232;2023-01-08T08:43:17;99145.66;;;8.69;100.00
21203;BME280;10759;51.982;9.232;2023-01-08T08:45:45;99129.34;;;8.57;100.00
21203;BME280;10759;51.982;9.232;2023-01-08T08:48:13;99137.38;;;8.75;100.00
21203;BME280;10759;51.982;9.232;2023-01-08T08:50:42;99140.75;;;8.78;100.00
21203;BME280;10759;51.982;9.232;2023-01-08T08:53:12;99141.41;;;8.84;100.00
21203;BME280;10759;51.982;9.232;2023-01-08T08:55:39;99136.97;;;8.82;100.00
21203;BME280;10759;51.982;9.232;2023-01-08T08:58:09;99134.16;;;8.86;100.00
21203;BME280;10759;51.982;9.232;2023-01-08T09:00:37;99129.28;;;8.76;100.00
21203;BME280;10759;51.982;9.232;2023-01-08T09:03:08;99138.97;;;8.79;100.00
21203;BME280;10759;51.982;9.232;2023-01-08T09:05:37;99066.88;;;8.43;100.00
21203;BME280;10759;51.982;9.232;2023-01-08T09:08:05;99139.19;;;8.92;100.00
21203;BME280;10759;51.982;9.232;2023-01-08T09:10:35;99032.13;;;8.25;100.00
21203;BME280;10759;51.982;9.232;2023-01-08T09:13:03;99111.53;;;8.75;100.00
21203;BME280;10759;51.982;9.232;2023-01-08T09:15:31;99140.22;;;8.89;100.00
21203;BME280;10759;51.982;9.232;2023-01-08T09:17:59;99127.38;;;8.78;100.00
21203;BME280;10759;51.982;9.232;2023-01-08T09:20:27;99140.59;;;8.81;100.00
21203;BME280;10759;51.982;9.232;2023-01-08T09:22:57;99142.78;;;8.91;100.00
21203;BME280;10759;51.982;9.232;2023-01-08T09:25:26;99147.50;;;9.03;100.00
21203;BME280;10759;51.982;9.232;2023-01-08T09:27:59;99131.97;;;8.94;100.00
21203;BME280;10759;51.982;9.232;2023-01-08T09:30:28;99118.13;;;8.86;100.00
21203;BME280;10759;51.982;9.232;2023-01-08T09:32:57;99139.66;;;9.00;100.00
21203;BME280;10759;51.982;9.232;2023-01-08T09:35:28;99145.78;;;9.02;100.00
21203;BME280;10759;51.982;9.232;2023-01-08T09:37:57;99145.00;;;9.17;100.00
21203;BME280;10759;51.982;9.232;2023-01-08T09:40:29;99129.91;;;9.16;100.00
21203;BME280;10759;51.982;9.232;2023-01-08T09:43:01;99135.03;;;9.21;100.00
21203;BME280;10759;51.982;9.232;2023-01-08T09:45:33;99144.06;;;9.18;100.00
21203;BME280;10759;51.982;9.232;2023-01-08T09:48:04;99050.72;;;8.63;100.00
21203;BME280;10759;51.982;9.232;2023-01-08T09:50:34;99133.69;;;9.12;100.00
21203;BME280;10759;51.982;9.232;2023-01-08T09:53:03;99137.78;;;9.19;100.00
21203;BME280;10759;51.982;9.232;2023-01-08T09:55:32;98921.31;;;8.01;100.00
21203;BME280;10759;51.982;9.232;2023-01-08T09:58:02;99136.69;;;9.23;100.00
21203;BME280;10759;51.982;9.232;2023-01-08T10:00:32;99128.03;;;9.18;100.00
21203;BME280;10759;51.982;9.232;2023-01-08T10:03:01;99145.72;;;9.21;100.00
21203;BME280;10759;51.982;9.232;2023-01-08T10:05:29;99138.38;;;9.24;100.00
21203;BME280;10759;51.982;9.232;2023-01-08T10:07:57;99125.38;;;9.18;100.00
21203;BME280;10759;51.982;9.232;2023-01-08T10:10:28;99129.06;;;9.16;100.00
21203;BME280;10759;51.982;9.232;2023-01-08T10:12:57;99127.00;;;9.21;100.00
21203;BME280;10759;51.982;9.232;2023-01-08T10:15:26;99141.06;;;9.24;100.00
21203;BME280;10759;51.982;9.232;2023-01-08T10:17:59;99070.53;;;8.94;100.00
21203;BME280;10759;51.982;9.232;2023-01-08T10:20:29;99102.06;;;9.20;100.00
21203;BME280;10759;51.982;9.232;2023-01-08T10:23:08;99097.50;;;9.22;100.00
21203;BME280;10759;51.982;9.232;2023-01-08T10:25:49;99106.00;;;9.31;100.00
21203;BME280;10759;51.982;9.232;2023-01-08T10:28:20;99112.03;;;9.34;100.00
21203;BME280;10759;51.982;9.232;2023-01-08T10:30:52;99109.75;;;9.44;100.00
21203;BME280;10759;51.982;9.232;2023-01-08T10:33:23;99123.19;;;9.42;100.00
21203;BME280;10759;51.982;9.232;2023-01-08T10:35:56;98981.47;;;8.60;100.00
21203;BME280;10759;51.982;9.232;2023-01-08T10:38:29;99107.28;;;9.57;100.00
21203;BME280;10759;51.982;9.232;2023-01-08T10:41:00;99101.31;;;9.52;100.00
21203;BME280;10759;51.982;9.232;2023-01-08T10:43:33;99111.94;;;9.53;100.00
21203;BME280;10759;51.982;9.232;2023-01-08T10:46:05;99098.75;;;9.66;100.00
21203;BME280;10759;51.982;9.232;2023-01-08T10:48:36;99105.44;;;9.75;100.00
21203;BME280;10759;51.982;9.232;2023-01-08T10:51:13;99088.75;;;9.70;100.00
21203;BME280;10759;51.982;9.232;2023-01-08T10:53:41;99061.81;;;9.57;100.00
21203;BME280;10759;51.982;9.232;2023-01-08T10:56:18;99094.03;;;9.71;100.00
21203;BME280;10759;51.982;9.232;2023-01-08T10:58:48;99084.53;;;9.65;100.00
21203;BME280;10759;51.982;9.232;2023-01-08T11:01:22;99044.91;;;9.56;100.00
21203;BME280;10759;51.982;9.232;2023-01-08T11:03:54;98995.38;;;9.33;100.00
21203;BME280;10759;51.982;9.232;2023-01-08T11:06:26;99082.56;;;9.85;100.00
21203;BME280;10759;51.982;9.232;2023-01-08T11:08:58;99020.91;;;9.55;100.00
21203;BME280;10759;51.982;9.232;2023-01-08T11:11:31;99082.41;;;9.88;100.00
21203;BME280;10759;51.982;9.232;2023-01-08T11:14:01;99017.91;;;9.61;100.00
21203;BME280;10759;51.982;9.232;2023-01-08T11:16:32;99073.06;;;9.95;100.00
21203;BME280;10759;51.982;9.232;2023-01-08T11:19:02;99073.59;;;10.02;100.00
21203;BME280;10759;51.982;9.232;2023-01-08T11:21:31;99074.09;;;10.08;100.00
21203;BME280;10759;51.982;9.232;2023-01-08T11:24:14;99076.53;;;10.13;100.00
21203;BME280;10759;51.982;9.232;2023-01-08T11:26:47;99072.91;;;9.98;100.00
21203;BME280;10759;51.982;9.232;2023-01-08T11:29:22;99069.81;;;9.90;100.00
21203;BME280;10759;51.982;9.232;2023-01-08T11:31:56;99072.38;;;10.07;100.00
21203;BME280;10759;51.982;9.232;2023-01-08T11:34:30;99068.75;;;10.08;100.00
21203;BME280;10759;51.982;9.232;2023-01-08T11:37:03;99070.97;;;10.16;100.00
21203;BME280;10759;51.982;9.232;2023-01-08T11:39:36;98979.69;;;9.59;100.00
21203;BME280;10759;51.982;9.232;2023-01-08T11:42:38;99054.09;;;10.00;100.00
21203;BME280;10759;51.982;9.232;2023-01-08T11:45:16;99066.66;;;10.14;100.00
21203;BME280;10759;51.982;9.232;2023-01-08T11:48:08;99069.94;;;10.19;100.00
21203;BME280;10759;51.982;9.232;2023-01-08T11:50:48;99048.53;;;10.19;100.00
21203;BME280;10759;51.982;9.232;2023-01-08T11:53:25;98991.94;;;9.95;100.00
21203;BME280;10759;51.982;9.232;2023-01-08T11:56:06;99049.41;;;10.19;100.00
21203;BME280;10759;51.982;9.232;2023-01-08T11:58:50;99035.44;;;10.14;100.00
21203;BME280;10759;51.982;9.232;2023-01-08T12:01:39;99037.16;;;10.31;100.00
21203;BME280;10759;51.982;9.232;2023-01-08T12:04:24;99009.09;;;10.22;100.00
21203;BME280;10759;51.982;9.232;2023-01-08T12:07:06;99034.72;;;10.26;100.00
21203;BME280;10759;51.982;9.232;2023-01-08T12:09:39;99029.19;;;10.14;100.00
21203;BME280;10759;51.982;9.232;2023-01-08T12:12:17;98914.56;;;9.44;100.00
21203;BME280;10759;51.982;9.232;2023-01-08T12:14:53;99022.41;;;10.08;100.00
21203;BME280;10759;51.982;9.232;2023-01-08T12:17:37;99024.41;;;10.04;100.00
21203;BME280;10759;51.982;9.232;2023-01-08T12:20:16;99017.41;;;10.02;100.00
21203;BME280;10759;51.982;9.232;2023-01-08T12:22:59;99001.34;;;10.02;100.00
21203;BME280;10759;51.982;9.232;2023-01-08T12:25:56;98982.28;;;9.92;100.00
21203;BME280;10759;51.982;9.232;2023-01-08T12:28:55;98999.88;;;9.96;100.00
21203;BME280;10759;51.982;9.232;2023-01-08T12:31:57;98953.59;;;9.94;100.00
21203;BME280;10759;51.982;9.232;2023-01-08T12:34:37;98852.88;;;9.47;100.00
21203;BME280;10759;51.982;9.232;2023-01-08T12:37:13;98976.00;;;10.39;100.00
21203;BME280;10759;51.982;9.232;2023-01-08T12:39:47;98971.41;;;10.41;100.00
21203;BME280;10759;51.982;9.232;2023-01-08T12:42:18;98966.97;;;10.56;100.00
21203;BME280;10759;51.982;9.232;2023-01-08T12:44:51;98953.03;;;10.35;100.00
21203;BME280;10759;51.982;9.232;2023-01-08T12:47:25;98954.78;;;10.36;100.00
21203;BME280;10759;51.982;9.232;2023-01-08T12:50:03;98965.91;;;10.28;100.00
21203;BME280;10759;51.982;9.232;2023-01-08T12:52:38;98957.00;;;10.28;100.00
21203;BME280;10759;51.982;9.232;2023-01-08T12:55:16;98952.78;;;10.24;100.00
21203;BME280;10759;51.982;9.232;2023-01-08T12:57:51;98925.19;;;10.07;100.00
21203;BME280;10759;51.982;9.232;2023-01-08T13:00:28;98946.06;;;10.17;100.00
21203;BME280;10759;51.982;9.232;2023-01-08T13:03:00;98953.06;;;10.19;100.00
21203;BME280;10759;51.982;9.232;2023-01-08T13:05:31;98941.13;;;10.25;100.00
21203;BME280;10759;51.982;9.232;2023-01-08T13:08:03;98936.59;;;10.41;100.00
21203;BME280;10759;51.982;9.232;2023-01-08T13:10:35;98860.00;;;10.08;100.00
21203;BME280;10759;51.982;9.232;2023-01-08T13:13:05;98918.81;;;10.40;100.00
21203;BME280;10759;51.982;9.232;2023-01-08T13:15:34;98929.47;;;10.56;100.00
21203;BME280;10759;51.982;9.232;2023-01-08T13:18:06;98899.13;;;10.41;100.00
21203;BME280;10759;51.982;9.232;2023-01-08T13:20:42;98923.81;;;10.75;100.00